createdAt,value
2018-11-05T00:00:42.243Z,83.91
2018-11-05T00:03:10.984Z,84.02
2018-11-05T00:05:39.817Z,83.67
2018-11-05T00:08:08.579Z,83.33
2018-11-05T00:10:37.317Z,83.67
2018-11-05T00:13:06.509Z,83.82
2018-11-05T00:15:35.279Z,83.60
2018-11-05T00:18:04.077Z,83.76
2018-11-05T00:20:32.869Z,83.73
2018-11-05T00:23:01.666Z,83.17
2018-11-05T00:25:30.388Z,83.62
2018-11-05T00:27:59.277Z,83.73
2018-11-05T00:30:28.000Z,83.70
2018-11-05T00:32:56.724Z,83.54
2018-11-05T00:35:25.598Z,83.68
2018-11-05T00:37:54.386Z,83.37
2018-11-05T00:40:23.120Z,83.45
2018-11-05T00:42:51.897Z,83.61
2018-11-05T00:45:20.830Z,83.62
2018-11-05T00:47:49.587Z,83.30
2018-11-05T00:50:18.406Z,83.19
2018-11-05T00:52:47.194Z,83.22
2018-11-05T00:55:15.949Z,82.67
2018-11-05T00:57:44.900Z,82.88
2018-11-05T01:00:15.732Z,82.66
2018-11-05T01:02:44.670Z,83.24
2018-11-05T01:05:14.775Z,82.81
2018-11-05T01:07:44.498Z,83.45
2018-11-05T01:10:14.403Z,83.33
2018-11-05T01:12:43.424Z,83.56
2018-11-05T01:15:13.775Z,82.83
2018-11-05T01:17:42.618Z,82.77
2018-11-05T01:20:13.654Z,82.87
2018-11-05T01:22:42.525Z,83.09
2018-11-05T01:25:11.394Z,83.19
2018-11-05T01:27:40.161Z,83.00
2018-11-05T01:30:11.735Z,83.08
2018-11-05T01:32:40.524Z,82.93
2018-11-05T01:35:10.984Z,83.44
2018-11-05T01:37:39.686Z,82.85
2018-11-05T01:40:11.571Z,83.19
2018-11-05T01:42:40.537Z,83.09
2018-11-05T01:45:10.844Z,83.28
2018-11-05T01:47:40.034Z,83.03
2018-11-05T01:50:10.904Z,83.34
2018-11-05T01:52:39.710Z,83.04
2018-11-05T01:55:09.198Z,83.49
2018-11-05T01:57:38.509Z,83.43
2018-11-05T02:03:13.274Z,83.90
2018-11-05T02:05:42.631Z,83.85
2018-11-05T02:08:11.362Z,83.77
2018-11-05T02:10:40.157Z,83.85
2018-11-05T02:13:08.909Z,84.21
2018-11-05T02:15:37.626Z,84.13
2018-11-05T02:18:06.717Z,83.71
2018-11-05T02:20:35.495Z,84.03
2018-11-05T02:23:04.242Z,84.26
2018-11-05T02:25:33.119Z,84.10
2018-11-05T02:28:01.819Z,84.35
2018-11-05T02:30:30.636Z,84.51
2018-11-05T02:32:59.544Z,84.64
2018-11-05T02:35:28.323Z,84.78
2018-11-05T02:37:57.085Z,84.71
2018-11-05T02:40:25.845Z,84.80
2018-11-05T02:42:54.556Z,84.68
2018-11-05T02:45:23.238Z,84.53
2018-11-05T02:47:52.278Z,84.54
2018-11-05T02:50:21.036Z,84.50
2018-11-05T02:52:49.781Z,84.23
2018-11-05T02:55:18.729Z,84.37
2018-11-05T02:57:47.431Z,84.87
2018-11-05T03:00:18.330Z,85.09
2018-11-05T03:02:47.248Z,85.04
2018-11-05T03:05:17.221Z,85.16
2018-11-05T03:07:46.663Z,85.25
2018-11-05T03:10:15.483Z,84.62
2018-11-05T03:12:45.281Z,85.12
2018-11-05T03:15:15.177Z,84.90
2018-11-05T03:17:44.105Z,85.08
2018-11-05T03:20:13.929Z,84.68
2018-11-05T03:22:43.205Z,84.79
2018-11-05T03:25:12.933Z,84.95
2018-11-05T03:27:42.114Z,85.03
2018-11-05T03:30:15.885Z,85.54
2018-11-05T03:32:44.629Z,85.65
2018-11-05T03:35:13.925Z,85.55
2018-11-05T03:37:44.034Z,85.59
2018-11-05T03:40:13.446Z,85.44
2018-11-05T03:42:43.234Z,85.61
2018-11-05T03:45:14.483Z,85.54
2018-11-05T03:47:43.691Z,85.48
2018-11-05T03:50:15.156Z,85.88
2018-11-05T03:52:44.806Z,86.05
2018-11-05T03:55:14.209Z,86.05
2018-11-05T03:57:43.181Z,86.27
2018-11-05T04:00:14.575Z,86.07
2018-11-05T04:02:43.400Z,85.74
2018-11-05T04:05:13.005Z,86.24
2018-11-05T04:07:42.798Z,85.83
2018-11-05T04:10:12.739Z,85.66
2018-11-05T04:12:41.627Z,85.37
2018-11-05T04:15:10.932Z,85.56
2018-11-05T04:17:39.710Z,85.42
2018-11-05T04:20:10.399Z,85.13
2018-11-05T04:22:39.205Z,85.40
2018-11-05T04:25:08.104Z,85.40
2018-11-05T04:27:36.999Z,85.79
2018-11-05T04:30:07.891Z,85.37
2018-11-05T04:32:36.707Z,85.49
2018-11-05T04:35:05.710Z,85.40
2018-11-05T04:37:34.494Z,86.00
2018-11-05T04:40:03.404Z,86.14
2018-11-05T04:42:32.504Z,85.93
2018-11-05T04:45:01.230Z,86.35
2018-11-05T04:47:30.003Z,86.52
2018-11-05T04:49:58.797Z,86.26
2018-11-05T04:52:27.694Z,86.90
2018-11-05T04:54:56.445Z,86.78
2018-11-05T04:57:25.291Z,86.41
2018-11-05T04:59:54.050Z,86.26
2018-11-05T05:02:22.859Z,86.03
2018-11-05T05:04:51.717Z,86.43
2018-11-05T05:07:20.459Z,86.29
2018-11-05T05:09:49.211Z,86.63
2018-11-05T05:12:18.098Z,86.51
2018-11-05T05:14:46.889Z,86.25
2018-11-05T05:17:15.805Z,86.52
2018-11-05T05:19:44.682Z,85.77
2018-11-05T05:22:13.557Z,86.10
2018-11-05T05:24:43.066Z,86.61
2018-11-05T05:27:11.964Z,86.62
2018-11-05T05:29:40.736Z,86.21
2018-11-05T05:32:09.532Z,86.00
2018-11-05T05:34:38.333Z,86.53
2018-11-05T05:37:07.155Z,86.13
2018-11-05T05:39:35.976Z,86.60
2018-11-05T05:42:05.159Z,86.48
2018-11-05T05:44:33.954Z,86.58
2018-11-05T05:47:02.842Z,86.95
2018-11-05T05:49:31.725Z,86.46
2018-11-05T05:52:00.462Z,86.26
2018-11-05T05:54:29.282Z,86.49
2018-11-05T05:56:58.064Z,86.30
2018-11-05T05:59:26.843Z,86.42
2018-11-05T06:01:55.587Z,86.61
2018-11-05T06:04:24.419Z,86.52
2018-11-05T06:06:53.244Z,87.01
2018-11-05T06:09:21.988Z,87.16
2018-11-05T06:11:50.877Z,86.40
2018-11-05T06:14:19.716Z,86.66
2018-11-05T06:16:48.497Z,86.78
2018-11-05T06:19:17.379Z,86.92
2018-11-05T06:21:46.145Z,86.70
2018-11-05T06:24:15.611Z,86.43
2018-11-05T06:26:44.810Z,86.73
2018-11-05T06:29:13.702Z,86.59
2018-11-05T06:31:43.348Z,86.60
2018-11-05T06:34:13.358Z,86.45
2018-11-05T06:36:43.234Z,86.29
2018-11-05T06:39:13.219Z,86.70
2018-11-05T06:41:42.775Z,86.47
2018-11-05T06:44:11.640Z,86.04
2018-11-05T06:46:40.432Z,85.84
2018-11-05T06:49:09.750Z,86.23
2018-11-05T06:51:38.466Z,86.29
2018-11-05T06:54:07.326Z,86.17
2018-11-05T06:56:36.597Z,86.36
2018-11-05T06:59:05.493Z,86.19
2018-11-05T07:01:34.295Z,86.29
2018-11-05T07:04:03.202Z,86.32
2018-11-05T07:06:32.067Z,86.18
2018-11-05T07:09:00.854Z,86.54
2018-11-05T07:11:29.738Z,86.47
2018-11-05T07:13:58.533Z,86.20
2018-11-05T07:16:27.359Z,86.31
2018-11-05T07:18:56.628Z,86.10
2018-11-05T07:21:25.265Z,86.45
2018-11-05T07:23:54.049Z,86.42
2018-11-05T07:26:22.926Z,85.84
2018-11-05T07:28:51.729Z,86.03
2018-11-05T07:31:20.523Z,85.93
2018-11-05T07:33:49.485Z,86.36
2018-11-05T07:36:18.236Z,85.88
2018-11-05T07:38:47.129Z,85.52
2018-11-05T07:41:16.063Z,86.14
2018-11-05T07:43:44.831Z,86.06
2018-11-05T07:46:13.903Z,85.61
2018-11-05T07:48:43.824Z,85.76
2018-11-05T07:51:13.368Z,85.42
2018-11-05T07:53:42.190Z,84.94
2018-11-05T07:56:11.112Z,84.97
2018-11-05T07:58:40.296Z,84.88
2018-11-05T08:01:09.119Z,84.59
2018-11-05T08:03:38.468Z,84.83
2018-11-05T08:06:07.295Z,84.29
2018-11-05T08:08:36.245Z,84.10
2018-11-05T08:11:05.164Z,83.90
2018-11-05T08:13:34.048Z,83.83
2018-11-05T08:16:02.958Z,83.72
2018-11-05T08:18:32.322Z,83.68
2018-11-05T08:21:01.223Z,83.81
2018-11-05T08:23:30.032Z,84.20
2018-11-05T08:25:58.884Z,83.92
2018-11-05T08:28:27.702Z,84.14
2018-11-05T08:30:56.560Z,83.93
2018-11-05T08:33:25.438Z,83.66
2018-11-05T08:35:55.569Z,83.54
2018-11-05T08:38:24.363Z,83.16
2018-11-05T08:40:53.173Z,83.29
2018-11-05T08:43:21.966Z,82.78
2018-11-05T08:45:50.958Z,82.81
2018-11-05T08:48:19.842Z,82.42
2018-11-05T08:50:48.799Z,82.10
2018-11-05T08:53:17.631Z,82.29
2018-11-05T08:55:46.528Z,82.30
2018-11-05T08:58:15.451Z,82.51
2018-11-05T09:00:48.626Z,82.79
2018-11-05T09:03:17.511Z,82.22
2018-11-05T09:05:46.399Z,82.44
2018-11-05T09:08:15.299Z,82.44
2018-11-05T09:10:44.664Z,81.71
2018-11-05T09:13:14.111Z,81.93
2018-11-05T09:15:43.615Z,81.42
2018-11-05T09:18:12.474Z,81.99
2018-11-05T09:20:41.448Z,82.15
2018-11-05T09:23:10.554Z,81.79
2018-11-05T09:25:39.554Z,81.92
2018-11-05T09:28:08.508Z,81.76
2018-11-05T09:30:37.547Z,81.51
2018-11-05T09:33:06.538Z,81.50
2018-11-05T09:35:35.416Z,81.82
2018-11-05T09:38:04.278Z,81.64
2018-11-05T09:40:33.006Z,81.38
2018-11-05T09:43:01.824Z,81.62
2018-11-05T09:45:37.225Z,81.51
2018-11-05T09:48:06.198Z,81.83
2018-11-05T09:50:35.149Z,81.09
2018-11-05T09:53:04.328Z,80.96
2018-11-05T09:55:33.162Z,81.95
2018-11-05T09:58:02.025Z,81.04
2018-11-05T10:00:31.228Z,81.44
2018-11-05T10:03:02.409Z,81.14
2018-11-05T10:05:31.254Z,80.73
2018-11-05T10:08:00.171Z,80.87
2018-11-05T10:10:29.109Z,80.81
2018-11-05T10:12:57.893Z,80.53
2018-11-05T10:15:26.917Z,80.19
2018-11-05T10:17:55.743Z,80.25
2018-11-05T10:20:25.278Z,80.32
2018-11-05T10:22:54.449Z,80.64
2018-11-05T10:25:23.354Z,81.03
2018-11-05T10:27:52.599Z,80.68
2018-11-05T10:30:25.686Z,80.67
2018-11-05T10:32:54.631Z,80.72
2018-11-05T10:35:28.582Z,80.76
2018-11-05T10:37:57.502Z,80.40
2018-11-05T10:40:26.356Z,80.70
2018-11-05T10:42:55.258Z,80.87
2018-11-05T10:45:24.146Z,81.26
2018-11-05T10:47:52.972Z,81.03
2018-11-05T10:50:21.841Z,81.37
2018-11-05T10:52:51.725Z,81.31
2018-11-05T10:55:20.617Z,81.46
2018-11-05T10:57:50.185Z,81.27
2018-11-05T11:00:25.288Z,81.48
2018-11-05T11:02:59.238Z,81.61
2018-11-05T11:05:29.163Z,81.80
2018-11-05T11:07:58.796Z,81.64
2018-11-05T11:10:28.633Z,82.05
2018-11-05T11:12:57.653Z,81.48
2018-11-05T11:15:26.553Z,81.58
2018-11-05T11:17:56.022Z,81.21
2018-11-05T11:20:24.818Z,81.35
2018-11-05T11:22:53.533Z,81.28
2018-11-05T11:25:22.470Z,80.88
2018-11-05T11:27:51.387Z,80.97
2018-11-05T11:30:20.125Z,81.22
2018-11-05T11:32:49.682Z,81.35
2018-11-05T11:35:18.502Z,80.60
2018-11-05T11:37:47.330Z,80.49
2018-11-05T11:40:19.988Z,80.01
2018-11-05T11:42:49.343Z,80.29
2018-11-05T11:45:19.357Z,80.37
2018-11-05T11:47:48.173Z,79.66
2018-11-05T11:50:17.684Z,80.18
2018-11-05T11:52:46.656Z,80.13
2018-11-05T11:55:17.816Z,79.87
2018-11-05T11:57:46.661Z,79.98
2018-11-05T12:00:20.050Z,80.00
2018-11-05T12:02:49.525Z,80.44
2018-11-05T12:05:18.378Z,80.58
2018-11-05T12:07:47.619Z,80.59
2018-11-05T12:10:24.575Z,80.87
2018-11-05T12:12:53.485Z,81.13
2018-11-05T12:15:23.020Z,81.42
2018-11-05T12:17:52.690Z,81.06
2018-11-05T12:20:23.209Z,80.86
2018-11-05T12:22:52.426Z,81.01
2018-11-05T12:25:21.269Z,81.18
2018-11-05T12:27:50.211Z,81.35
2018-11-05T12:30:22.323Z,81.63
2018-11-05T12:32:52.136Z,81.90
2018-11-05T12:35:20.976Z,81.80
2018-11-05T12:37:50.931Z,81.94
2018-11-05T12:40:21.064Z,81.48
2018-11-05T12:42:50.668Z,81.35
2018-11-05T12:45:19.595Z,81.90
2018-11-05T12:47:48.747Z,81.76
2018-11-05T12:50:19.692Z,82.12
2018-11-05T12:52:49.603Z,81.44
2018-11-05T12:55:18.422Z,80.92
2018-11-05T12:57:47.597Z,81.44
2018-11-05T13:00:19.452Z,81.47
2018-11-05T13:02:53.186Z,81.21
2018-11-05T13:05:22.585Z,81.96
2018-11-05T13:07:51.587Z,82.51
2018-11-05T13:10:20.768Z,82.52
2018-11-05T13:12:49.760Z,81.86
2018-11-05T13:15:18.662Z,82.33
2018-11-05T13:17:47.391Z,83.05
2018-11-05T13:20:20.386Z,82.61
2018-11-05T13:22:49.270Z,82.38
2018-11-05T13:25:18.207Z,82.33
2018-11-05T13:27:49.148Z,82.29
2018-11-05T13:30:18.343Z,82.61
2018-11-05T13:32:47.253Z,82.62
2018-11-05T13:35:17.523Z,82.24
2018-11-05T13:37:46.761Z,81.94
2018-11-05T13:40:16.511Z,81.77
2018-11-05T13:42:45.898Z,81.86
2018-11-05T13:45:15.287Z,81.83
2018-11-05T13:47:45.984Z,81.82
2018-11-05T13:50:14.581Z,81.35
2018-11-05T13:52:43.996Z,82.17
2018-11-05T13:55:15.788Z,81.70
2018-11-05T13:57:45.569Z,81.65
2018-11-05T14:00:15.813Z,82.11
2018-11-05T14:02:44.639Z,81.73
2018-11-05T14:05:14.042Z,81.57
2018-11-05T14:07:43.920Z,82.01
2018-11-05T14:10:18.178Z,81.62
2018-11-05T14:12:47.284Z,82.12
2018-11-05T14:15:15.956Z,82.06
2018-11-05T14:17:45.440Z,81.96
2018-11-05T14:20:15.250Z,82.30
2018-11-05T14:22:44.184Z,82.62
2018-11-05T14:25:15.260Z,81.94
2018-11-05T14:27:46.492Z,81.94
2018-11-05T14:30:15.308Z,82.29
2018-11-05T14:32:45.380Z,82.19
2018-11-05T14:35:14.220Z,82.43
2018-11-05T14:37:43.794Z,82.69
2018-11-05T14:40:14.303Z,82.29
2018-11-05T14:42:43.969Z,82.02
2018-11-05T14:45:15.942Z,81.79
2018-11-05T14:47:45.514Z,81.75
2018-11-05T14:50:16.806Z,81.42
2018-11-05T14:52:45.656Z,81.98
2018-11-05T14:55:16.070Z,82.10
2018-11-05T14:57:45.865Z,82.32
2018-11-05T15:00:16.648Z,82.60
2018-11-05T15:02:46.279Z,82.70
2018-11-05T15:05:15.600Z,82.56
2018-11-05T15:07:45.300Z,82.70
2018-11-05T15:10:16.590Z,82.94
2018-11-05T15:12:45.468Z,83.16
2018-11-05T15:15:14.863Z,82.93
2018-11-05T15:17:44.414Z,82.98
2018-11-05T15:20:17.427Z,82.66
2018-11-05T15:22:45.978Z,82.58
2018-11-05T15:25:15.130Z,82.60
2018-11-05T15:27:44.047Z,82.42
2018-11-05T15:30:16.172Z,82.73
2018-11-05T15:32:45.098Z,82.08
2018-11-05T15:35:14.169Z,82.55
2018-11-05T15:37:44.559Z,81.92
2018-11-05T15:40:15.478Z,82.39
2018-11-05T15:42:45.107Z,82.22
2018-11-05T15:45:15.188Z,81.47
2018-11-05T15:47:44.270Z,81.86
2018-11-05T15:50:15.998Z,81.99
2018-11-05T15:52:45.100Z,81.51
2018-11-05T15:55:14.238Z,81.54
2018-11-05T15:57:44.059Z,81.32
2018-11-05T16:00:20.964Z,81.41
2018-11-05T16:02:51.786Z,81.58
2018-11-05T16:05:20.670Z,80.88
2018-11-05T16:07:49.513Z,80.50
2018-11-05T16:10:18.704Z,80.74
2018-11-05T16:12:47.536Z,81.07
2018-11-05T16:15:16.314Z,80.57
2018-11-05T16:17:45.212Z,80.80
2018-11-05T16:20:17.447Z,80.28
2018-11-05T16:22:46.878Z,80.30
2018-11-05T16:25:15.634Z,80.82
2018-11-05T16:27:44.613Z,80.58
2018-11-05T16:30:15.701Z,80.21
2018-11-05T16:32:45.000Z,80.46
2018-11-05T16:35:14.126Z,80.54
2018-11-05T16:37:42.951Z,80.15
2018-11-05T16:40:14.333Z,80.10
2018-11-05T16:42:44.917Z,80.60
2018-11-05T16:45:14.072Z,80.95
2018-11-05T16:47:43.217Z,80.47
2018-11-05T16:50:21.683Z,80.54
2018-11-05T16:52:50.468Z,81.09
2018-11-05T16:55:19.286Z,81.19
2018-11-05T16:57:48.138Z,81.17
2018-11-05T17:00:17.468Z,81.42
2018-11-05T17:02:47.205Z,81.07
2018-11-05T17:05:15.757Z,81.13
2018-11-05T17:07:44.644Z,81.12
2018-11-05T17:10:14.976Z,81.15
2018-11-05T17:12:45.099Z,81.43
2018-11-05T17:15:15.255Z,81.18
2018-11-05T17:17:44.508Z,81.20
2018-11-05T17:20:16.851Z,81.20
2018-11-05T17:22:45.991Z,81.29
2018-11-05T17:25:15.175Z,81.44
2018-11-05T17:27:44.848Z,81.05
2018-11-05T17:30:17.323Z,80.15
2018-11-05T17:32:46.297Z,80.18
2018-11-05T17:35:15.757Z,79.79
2018-11-05T17:37:45.079Z,79.27
2018-11-05T17:40:15.500Z,79.65
2018-11-05T17:42:44.226Z,79.75
2018-11-05T17:45:15.396Z,79.81
2018-11-05T17:47:44.432Z,79.46
2018-11-05T17:50:15.616Z,79.92
2018-11-05T17:52:44.766Z,79.42
2018-11-05T17:55:14.660Z,79.40
2018-11-05T17:57:45.316Z,79.15
2018-11-05T18:00:19.899Z,79.52
2018-11-05T18:02:48.637Z,79.53
2018-11-05T18:05:17.414Z,79.68
2018-11-05T18:07:46.548Z,79.85
2018-11-05T18:10:15.317Z,79.85
2018-11-05T18:12:44.395Z,79.79
2018-11-05T18:15:14.530Z,79.86
2018-11-05T18:17:45.217Z,80.01
2018-11-05T18:20:15.156Z,80.16
2018-11-05T18:22:44.163Z,80.12
2018-11-05T18:25:15.179Z,80.45
2018-11-05T18:27:44.474Z,80.26
2018-11-05T18:30:14.879Z,80.95
2018-11-05T18:32:44.329Z,80.74
2018-11-05T18:35:14.923Z,80.77
2018-11-05T18:37:45.630Z,80.96
2018-11-05T18:40:15.518Z,81.44
2018-11-05T18:42:44.829Z,81.43
2018-11-05T18:45:14.442Z,81.72
2018-11-05T18:47:44.380Z,81.89
2018-11-05T18:50:15.515Z,81.85
2018-11-05T18:52:44.654Z,82.20
2018-11-05T18:55:15.619Z,82.67
2018-11-05T18:57:44.349Z,82.94
2018-11-05T19:00:19.154Z,82.70
2018-11-05T19:02:48.259Z,82.76
2018-11-05T19:05:17.458Z,82.32
2018-11-05T19:07:46.529Z,82.79
2018-11-05T19:10:15.391Z,82.79
2018-11-05T19:12:44.550Z,83.02
2018-11-05T19:15:15.368Z,83.32
2018-11-05T19:17:45.201Z,82.94
2018-11-05T19:20:14.234Z,83.25
2018-11-05T19:22:43.927Z,83.42
2018-11-05T19:25:13.726Z,83.51
2018-11-05T19:27:42.941Z,83.45
2018-11-05T19:30:17.320Z,84.16
2018-11-05T19:32:46.525Z,83.65
2018-11-05T19:35:15.332Z,83.25
2018-11-05T19:37:44.814Z,83.41
2018-11-05T19:40:15.176Z,83.74
2018-11-05T19:42:45.305Z,83.79
2018-11-05T19:45:16.266Z,83.62
2018-11-05T19:47:45.006Z,83.71
2018-11-05T19:50:17.041Z,83.65
2018-11-05T19:52:46.399Z,84.50
2018-11-05T19:55:16.302Z,84.08
2018-11-05T19:57:45.923Z,83.77
2018-11-05T20:00:24.569Z,83.72
2018-11-05T20:02:54.049Z,84.24
2018-11-05T20:05:22.915Z,83.81
2018-11-05T20:07:52.462Z,83.87
2018-11-05T20:10:21.359Z,83.84
2018-11-05T20:12:50.283Z,83.41
2018-11-05T20:15:19.475Z,84.07
2018-11-05T20:17:49.256Z,84.07
2018-11-05T20:20:19.357Z,84.15
2018-11-05T20:22:48.351Z,84.26
2018-11-05T20:25:17.501Z,83.81
2018-11-05T20:27:46.218Z,83.80
2018-11-05T20:30:18.320Z,83.73
2018-11-05T20:32:48.457Z,83.92
2018-11-05T20:35:16.794Z,84.09
2018-11-05T20:37:45.642Z,83.27
2018-11-05T20:40:16.987Z,83.66
2018-11-05T20:42:46.742Z,83.23
2018-11-05T20:45:17.171Z,83.70
2018-11-05T20:47:45.924Z,83.86
2018-11-05T20:50:15.791Z,83.91
2018-11-05T20:52:45.131Z,83.51
2018-11-05T20:55:15.743Z,83.50
2018-11-05T20:57:48.362Z,83.67
2018-11-05T21:00:19.139Z,83.36
2018-11-05T21:02:47.909Z,83.17
2018-11-05T21:05:16.767Z,82.97
2018-11-05T21:07:45.833Z,82.73
2018-11-05T21:10:15.448Z,82.59
2018-11-05T21:12:45.126Z,82.43
2018-11-05T21:15:16.260Z,82.50
2018-11-05T21:17:46.315Z,82.62
2018-11-05T21:20:15.302Z,82.57
2018-11-05T21:22:45.296Z,82.79
2018-11-05T21:25:14.808Z,82.67
2018-11-05T21:27:43.975Z,82.76
2018-11-05T21:30:14.878Z,82.91
2018-11-05T21:32:45.251Z,82.70
2018-11-05T21:35:16.509Z,83.29
2018-11-05T21:37:45.223Z,83.10
2018-11-05T21:40:16.195Z,83.37
2018-11-05T21:42:44.960Z,83.42
2018-11-05T21:45:15.493Z,83.77
2018-11-05T21:47:45.618Z,83.52
2018-11-05T21:50:16.241Z,83.65
2018-11-05T21:52:45.435Z,83.69
2018-11-05T21:55:14.897Z,83.68
2018-11-05T21:57:45.179Z,84.06
2018-11-05T22:00:19.407Z,83.85
2018-11-05T22:02:53.321Z,83.55
2018-11-05T22:05:22.519Z,83.82
2018-11-05T22:07:51.283Z,83.68
2018-11-05T22:10:19.987Z,83.82
2018-11-05T22:12:49.139Z,84.00
2018-11-05T22:15:18.186Z,83.69
2018-11-05T22:17:47.222Z,83.65
2018-11-05T22:20:16.175Z,83.95
2018-11-05T22:22:45.008Z,83.67
2018-11-05T22:25:13.672Z,83.29
2018-11-05T22:27:42.516Z,83.22
2018-11-05T22:30:12.147Z,83.29
2018-11-05T22:32:40.906Z,83.46
2018-11-05T22:35:09.934Z,83.65
2018-11-05T22:37:38.730Z,83.71
2018-11-05T22:40:10.400Z,83.82
2018-11-05T22:42:39.238Z,83.85
2018-11-05T22:45:08.477Z,84.35
2018-11-05T22:47:37.316Z,84.58
2018-11-05T22:50:06.469Z,84.61
2018-11-05T22:52:35.195Z,84.73
2018-11-05T22:55:04.142Z,84.99
2018-11-05T22:57:32.968Z,84.85
2018-11-05T23:00:01.791Z,85.10
2018-11-05T23:02:30.711Z,85.22
2018-11-05T23:04:59.440Z,85.52
2018-11-05T23:07:28.191Z,85.42
2018-11-05T23:09:56.955Z,85.89
2018-11-05T23:12:25.661Z,85.68
2018-11-05T23:14:54.377Z,85.35
2018-11-05T23:17:23.603Z,85.35
2018-11-05T23:19:52.510Z,85.04
2018-11-05T23:22:21.238Z,85.20
2018-11-05T23:24:49.985Z,85.05
2018-11-05T23:27:18.860Z,85.43
2018-11-05T23:29:47.631Z,85.39
2018-11-05T23:32:16.558Z,85.15
2018-11-05T23:34:45.266Z,85.05
2018-11-05T23:37:15.069Z,85.34
2018-11-05T23:39:43.897Z,85.20
2018-11-05T23:42:12.603Z,85.23
2018-11-05T23:44:41.310Z,85.41
2018-11-05T23:47:10.386Z,85.07
2018-11-05T23:49:39.122Z,84.83
2018-11-05T23:52:07.928Z,84.93
2018-11-05T23:54:36.782Z,84.80
2018-11-05T23:57:05.562Z,84.85
2018-11-05T23:59:34.280Z,84.59
